Albatros — DITX — position and weather

sailwx.info

Track history (hours):
 
Tides and Currents Weather Stations Pressure Air Temp Water Temp Dewpoint Dewpoint Depression Visibility Wind Speed Wind Dir Waves Ship Positions

Albatros

Last reported at 2015-Apr-18 13:34 UTC. Time now 2015-Apr-18 16:44 UTC.
Position N 54°31' E 013°10'.

Length 16 m.

MMSI: 211226200.

Date/timePositionNaut miles runAvg speedWind from/ knotsBaromVisibWave heightAir tempDewpointWater temp
2015-Apr-18 13:34N 54°31' E 013°10'3 3.0
2015-Apr-18 12:33N 54°34' E 013°09'6 6.3
2015-Apr-18 11:33N 54°40' E 013°12'2 1.7
2015-Apr-18 10:33N 54°42' E 013°11'1 0.5
2015-Apr-18 09:34N 54°41' E 013°11'0 0.1
2015-Apr-18 08:33N 54°42' E 013°10'0 0.2
2015-Apr-18 07:18N 54°41' E 013°11'0 0.6
2015-Apr-18 06:33N 54°41' E 013°11'5 5.3
2015-Apr-18 05:33N 54°36' E 013°10'4 4.5
2015-Apr-18 04:33N 54°31' E 013°09'  
2015-Apr-15 08:33N 54°32' E 013°08'5 5.2
2015-Apr-15 07:33N 54°37' E 013°09'1 1.0
2015-Apr-15 06:33N 54°37' E 013°11'5 4.8
2015-Apr-15 05:33N 54°32' E 013°08'2 1.8
2015-Apr-15 04:33N 54°31' E 013°10'  
2015-Apr-11 13:33N 54°31' E 013°10'5 4.9
2015-Apr-11 12:33N 54°36' E 013°10'3 3.4
2015-Apr-11 11:33N 54°39' E 013°12'2 1.9
2015-Apr-11 10:21N 54°41' E 013°12'1 0.6
2015-Apr-11 09:27N 54°42' E 013°12'0 0.0
2015-Apr-11 08:33N 54°42' E 013°12'1 0.9
2015-Apr-11 07:33N 54°41' E 013°11'3 2.5
2015-Apr-11 06:33N 54°39' E 013°10'6 5.9
2015-Apr-11 05:33N 54°33' E 013°08'3 2.5
2015-Apr-11 04:33N 54°31' E 013°10'0 0.0
2015-Apr-10 13:21N 54°31' E 013°10'3 3.7
2015-Apr-10 12:33N 54°34' E 013°09'6 5.6
2015-Apr-10 11:33N 54°39' E 013°12'2 2.2
2015-Apr-10 10:33N 54°41' E 013°10'1 1.3
2015-Apr-10 09:33N 54°42' E 013°13'0 0.4
2015-Apr-10 08:33N 54°42' E 013°12'1 0.9
2015-Apr-10 07:33N 54°41' E 013°10'2 2.2
2015-Apr-10 06:33N 54°39' E 013°11'6 6.2
2015-Apr-10 05:34N 54°33' E 013°09'2 0.2
2015-Apr-09 13:30N 54°31' E 013°10'4 3.9
2015-Apr-09 12:33N 54°34' E 013°10'7 6.7
2015-Apr-09 11:33N 54°41' E 013°13'1 0.7
2015-Apr-09 10:33N 54°42' E 013°12'1 0.6
2015-Apr-09 09:27N 54°42' E 013°11'0 0.5
2015-Apr-09 08:33N 54°42' E 013°10'0 0.1
2015-Apr-09 07:33N 54°42' E 013°11'1 1.0
2015-Apr-09 06:33N 54°41' E 013°10'7 7.1
2015-Apr-09 05:33N 54°33' E 013°10'  
Track history (hours):
 
Tides and Currents Weather Stations Pressure Air Temp Water Temp Dewpoint Dewpoint Depression Visibility Wind Speed Wind Dir Waves Ship Positions

Albatros

Last reported at 2015-Apr-18 13:34 UTC. Time now 2015-Apr-18 16:44 UTC.
Position N 54°31' E 013°10'.

Length 16 m.

MMSI: 211226200.

Date/timePositionNaut miles runAvg speedWind from/ knotsBaromVisibWave heightAir tempDewpointWater temp
2015-Apr-18 13:34N 54°31' E 013°10'3 3.0
2015-Apr-18 12:33N 54°34' E 013°09'6 6.3
2015-Apr-18 11:33N 54°40' E 013°12'2 1.7
2015-Apr-18 10:33N 54°42' E 013°11'1 0.5
2015-Apr-18 09:34N 54°41' E 013°11'0 0.1
2015-Apr-18 08:33N 54°42' E 013°10'0 0.2
2015-Apr-18 07:18N 54°41' E 013°11'0 0.6
2015-Apr-18 06:33N 54°41' E 013°11'5 5.3
2015-Apr-18 05:33N 54°36' E 013°10'4 4.5
2015-Apr-18 04:33N 54°31' E 013°09'  
2015-Apr-15 08:33N 54°32' E 013°08'5 5.2
2015-Apr-15 07:33N 54°37' E 013°09'1 1.0
2015-Apr-15 06:33N 54°37' E 013°11'5 4.8
2015-Apr-15 05:33N 54°32' E 013°08'2 1.8
2015-Apr-15 04:33N 54°31' E 013°10'  
2015-Apr-11 13:33N 54°31' E 013°10'5 4.9
2015-Apr-11 12:33N 54°36' E 013°10'3 3.4
2015-Apr-11 11:33N 54°39' E 013°12'2 1.9
2015-Apr-11 10:21N 54°41' E 013°12'1 0.6
2015-Apr-11 09:27N 54°42' E 013°12'0 0.0
2015-Apr-11 08:33N 54°42' E 013°12'1 0.9
2015-Apr-11 07:33N 54°41' E 013°11'3 2.5
2015-Apr-11 06:33N 54°39' E 013°10'6 5.9
2015-Apr-11 05:33N 54°33' E 013°08'3 2.5
2015-Apr-11 04:33N 54°31' E 013°10'0 0.0
2015-Apr-10 13:21N 54°31' E 013°10'3 3.7
2015-Apr-10 12:33N 54°34' E 013°09'6 5.6
2015-Apr-10 11:33N 54°39' E 013°12'2 2.2
2015-Apr-10 10:33N 54°41' E 013°10'1 1.3
2015-Apr-10 09:33N 54°42' E 013°13'0 0.4
2015-Apr-10 08:33N 54°42' E 013°12'1 0.9
2015-Apr-10 07:33N 54°41' E 013°10'2 2.2
2015-Apr-10 06:33N 54°39' E 013°11'6 6.2
2015-Apr-10 05:34N 54°33' E 013°09'2 0.2
2015-Apr-09 13:30N 54°31' E 013°10'4 3.9
2015-Apr-09 12:33N 54°34' E 013°10'7 6.7
2015-Apr-09 11:33N 54°41' E 013°13'1 0.7
2015-Apr-09 10:33N 54°42' E 013°12'1 0.6
2015-Apr-09 09:27N 54°42' E 013°11'0 0.5
2015-Apr-09 08:33N 54°42' E 013°10'0 0.1
2015-Apr-09 07:33N 54°42' E 013°11'1 1.0
2015-Apr-09 06:33N 54°41' E 013°10'7 7.1
2015-Apr-09 05:33N 54°33' E 013°10'  

Dump ship's entire track history